Terminal Aerodrome Forecast
Issued by NWS

Home | Current Version | Previous Version | Text Only | Print | Product List | Glossary On
Versions: 1 2 3 4 5 6 7 8 9 10 11 12 13
000
FTAK31 PAFA 211739
TAFATA
TAF
PATA 211739Z 2118/2218 08012G20KT P6SM VCSH SCT035 OVC080
      TEMPO 2118/2120 5SM -SN BKN035
     FM220400 10009KT P6SM SCT080 BKN120=

USA.gov is the U.S. government's official web portal to all federal, state and local government web resources and services.